Time;durP1;ratioP1;P1;durP2;ratioP2;P2;SDS_P1;SDS_P2;PMS_P1;PMS_P2;Temp;Humidity;BMP_temperature;BMP_pressure;BME280_temperature;BME280_humidity;BME280_pressure;Samples;Min_cycle;Max_cycle;Signal;HPM_P1;HPM_P2
2022/01/27 00:01:07;;;;;;;43.85;17.38;;;0.30;99.90;;;;;;4964698;28;20051;-82
2022/01/27 00:03:48;;;;;;;36.03;16.08;;;0.30;99.90;;;;;;4934581;29;20031;-81
2022/01/27 00:06:16;;;;;;;42.65;16.35;;;0.30;99.90;;;;;;4969033;29;20031;-81
2022/01/27 00:08:52;;;;;;;42.63;17.53;;;0.30;99.90;;;;;;4958610;28;20081;-81
2022/01/27 00:11:18;;;;;;;42.55;16.67;;;0.40;99.90;;;;;;4984695;28;20232;-81
2022/01/27 00:13:48;;;;;;;44.78;17.63;;;0.50;99.90;;;;;;4983154;28;20080;-81
2022/01/27 00:16:19;;;;;;;41.92;17.38;;;0.50;99.90;;;;;;4966779;28;20039;-81
2022/01/27 00:18:47;;;;;;;42.70;16.35;;;0.50;99.90;;;;;;4966811;28;20027;-80
2022/01/27 00:21:14;;;;;;;44.28;17.13;;;0.50;99.90;;;;;;4983547;28;20309;-81
2022/01/27 00:23:41;;;;;;;48.53;18.23;;;0.50;99.90;;;;;;4967657;28;20038;-81
2022/01/27 00:26:07;;;;;;;43.10;16.15;;;0.50;99.90;;;;;;4983108;28;20042;-81
2022/01/27 00:28:36;;;;;;;42.40;17.92;;;0.50;99.90;;;;;;4984095;28;20026;-82
2022/01/27 00:31:02;;;;;;;41.75;16.17;;;0.40;99.90;;;;;;4966208;28;20105;-81
2022/01/27 00:33:27;;;;;;;47.58;18.00;;;0.30;99.90;;;;;;4984609;28;20034;-81
2022/01/27 00:35:53;;;;;;;42.35;15.80;;;0.30;99.90;;;;;;4969805;28;20073;-80
2022/01/27 00:38:19;;;;;;;53.33;19.42;;;0.40;99.90;;;;;;4993093;28;20026;-81
2022/01/27 00:40:44;;;;;;;45.97;17.70;;;0.40;99.90;;;;;;4979355;28;20040;-80
2022/01/27 00:43:11;;;;;;;43.60;16.33;;;0.30;99.90;;;;;;4988612;28;20317;-81
2022/01/27 00:45:37;;;;;;;44.33;18.08;;;0.30;99.90;;;;;;4982588;28;20046;-82
2022/01/27 00:48:04;;;;;;;48.38;19.70;;;0.40;99.90;;;;;;4983268;28;20082;-81
2022/01/27 00:50:35;;;;;;;47.72;19.02;;;0.40;99.90;;;;;;4984148;28;20033;-82
2022/01/27 00:53:16;;;;;;;45.85;16.85;;;0.50;99.90;;;;;;4984143;28;20027;-82
2022/01/27 00:55:45;;;;;;;43.78;16.85;;;0.60;99.90;;;;;;4983463;28;20031;-82
2022/01/27 00:58:44;;;;;;;40.28;17.45;;;0.60;99.90;;;;;;4983083;28;20019;-82
2022/01/27 01:01:13;;;;;;;45.88;17.20;;;0.70;99.90;;;;;;4979100;28;20314;-83
2022/01/27 01:03:43;;;;;;;41.28;16.85;;;0.70;99.90;;;;;;4963060;29;20027;-82
2022/01/27 01:11:27;;;;;;;46.30;18.20;;;0.70;99.90;;;;;;4963330;29;20031;-82
2022/01/27 01:19:07;;;;;;;45.28;19.10;;;0.70;99.90;;;;;;4963058;29;20031;-82
2022/01/27 01:29:53;;;;;;;48.15;18.20;;;0.60;99.90;;;;;;4963358;29;20027;-83
2022/01/27 01:32:32;;;;;;;41.30;17.05;;;0.70;99.90;;;;;;4962920;29;20035;-83
2022/01/27 01:34:59;;;;;;;41.85;16.70;;;0.70;99.90;;;;;;4946480;29;20035;-82
2022/01/27 01:37:25;;;;;;;40.20;16.85;;;0.80;99.90;;;;;;4962939;29;20171;-82
2022/01/27 01:39:51;;;;;;;40.05;16.48;;;0.70;99.90;;;;;;4962786;29;20035;-82
2022/01/27 01:42:17;;;;;;;40.60;17.08;;;0.70;99.90;;;;;;4962305;29;20035;-83
2022/01/27 01:44:43;;;;;;;37.92;16.35;;;0.70;99.90;;;;;;4930266;29;20073;-81
2022/01/27 01:47:09;;;;;;;38.15;16.77;;;0.70;99.90;;;;;;4962254;29;20043;-82
2022/01/27 01:49:35;;;;;;;39.92;16.77;;;0.70;99.90;;;;;;4930398;29;20031;-81
2022/01/27 01:52:07;;;;;;;35.50;16.23;;;0.70;99.90;;;;;;4946157;29;20035;-82
2022/01/27 01:54:33;;;;;;;37.60;16.23;;;0.70;99.90;;;;;;4962547;29;20046;-82
2022/01/27 01:57:01;;;;;;;;;;;0.70;99.90;;;;;;4962457;29;20027;-83
2022/01/27 01:59:27;;;;;;;35.30;15.55;;;0.70;99.90;;;;;;4946713;29;19949;-81
2022/01/27 02:01:53;;;;;;;37.05;15.27;;;0.70;99.90;;;;;;4949411;29;20090;-81
2022/01/27 02:04:18;;;;;;;34.45;15.52;;;0.70;99.90;;;;;;4933728;29;20123;-82
2022/01/27 02:06:57;;;;;;;37.47;15.77;;;0.80;99.90;;;;;;4964871;29;20110;-82
2022/01/27 02:20:12;;;;;;;32.17;15.50;;;0.80;99.90;;;;;;4966908;29;20047;-83
2022/01/27 02:22:39;;;;;;;35.63;16.30;;;0.80;99.90;;;;;;4967415;28;20023;-84
2022/01/27 02:25:06;;;;;;;36.10;16.08;;;0.90;99.90;;;;;;4966163;29;20106;-83
2022/01/27 02:27:32;;;;;;;37.72;17.15;;;0.80;99.90;;;;;;4952169;29;20258;-81
2022/01/27 02:29:58;;;;;;;34.10;15.45;;;0.70;99.90;;;;;;4949546;29;20290;-82
2022/01/27 02:32:24;;;;;;;37.95;16.33;;;0.70;99.90;;;;;;4950443;29;20090;-81
2022/01/27 02:34:50;;;;;;;37.08;16.15;;;0.70;99.90;;;;;;4965846;29;20023;-80
2022/01/27 02:37:16;;;;;;;37.75;16.70;;;0.80;99.90;;;;;;4965845;29;20066;-82
2022/01/27 02:39:42;;;;;;;36.33;16.55;;;0.80;99.90;;;;;;4949806;29;20034;-82
2022/01/27 02:42:33;;;;;;;34.30;15.75;;;0.70;99.90;;;;;;4967161;29;20046;-81
2022/01/27 02:45:02;;;;;;;35.75;15.57;;;0.70;99.90;;;;;;4965320;29;20110;-81
2022/01/27 02:47:28;;;;;;;34.03;14.57;;;0.70;99.90;;;;;;4966946;29;20031;-81
2022/01/27 02:49:54;;;;;;;34.65;15.57;;;0.80;99.90;;;;;;4965780;29;20075;-81
2022/01/27 02:52:20;;;;;;;32.53;15.55;;;0.80;99.90;;;;;;4966732;28;20027;-81
2022/01/27 02:54:46;;;;;;;35.53;15.20;;;0.70;99.90;;;;;;4967070;28;20019;-82
2022/01/27 02:57:12;;;;;;;34.40;16.17;;;0.80;99.90;;;;;;4967087;28;20027;-82
2022/01/27 02:59:38;;;;;;;37.25;16.08;;;0.80;99.90;;;;;;4949619;29;20035;-82
2022/01/27 03:02:04;;;;;;;37.35;16.58;;;0.80;99.90;;;;;;4966343;29;20031;-83
2022/01/27 03:04:30;;;;;;;33.95;15.30;;;0.90;99.90;;;;;;4966583;28;20123;-83
2022/01/27 03:06:57;;;;;;;33.83;15.52;;;0.90;99.90;;;;;;4967537;28;20326;-82
2022/01/27 03:09:23;;;;;;;35.42;15.32;;;0.90;99.90;;;;;;4967352;29;20051;-82
2022/01/27 03:15:20;;;;;;;31.27;15.13;;;0.80;99.90;;;;;;4966329;29;20035;-82
2022/01/27 03:17:45;;;;;;;;;;;0.80;99.90;;;;;;4949382;29;20206;-82
2022/01/27 03:20:11;;;;;;;33.95;15.13;;;0.70;99.90;;;;;;4950991;29;19906;-83
2022/01/27 03:22:37;;;;;;;33.92;15.43;;;0.70;99.90;;;;;;4966757;28;20050;-82
2022/01/27 03:25:19;;;;;;;33.05;16.23;;;0.70;99.90;;;;;;4965635;28;20035;-82
2022/01/27 03:27:47;;;;;;;31.10;14.73;;;0.70;99.90;;;;;;4949423;29;20035;-82
2022/01/27 03:30:13;;;;;;;;;;;0.70;99.90;;;;;;4966531;28;20055;-82
2022/01/27 03:32:42;;;;;;;33.95;15.75;;;0.60;99.90;;;;;;4966284;28;19906;-82
2022/01/27 03:35:18;;;;;;;31.10;14.75;;;0.60;99.90;;;;;;4964967;28;20051;-83
2022/01/27 03:37:46;;;;;;;32.25;15.00;;;0.60;99.90;;;;;;4948681;29;20053;-83
2022/01/27 03:40:12;;;;;;;34.72;15.63;;;0.70;99.90;;;;;;4948639;29;20337;-82
2022/01/27 03:42:45;;;;;;;33.70;14.90;;;0.70;99.90;;;;;;4965634;28;20049;-83
2022/01/27 03:45:14;;;;;;;31.80;14.88;;;0.80;99.90;;;;;;4964713;29;20317;-83
2022/01/27 03:47:40;;;;;;;32.60;14.50;;;0.80;99.90;;;;;;4948658;29;20039;-83
2022/01/27 03:50:07;;;;;;;31.80;14.40;;;0.90;99.90;;;;;;4965671;28;20269;-83
2022/01/27 03:52:49;;;;;;;32.03;14.75;;;0.90;99.90;;;;;;4959804;29;20042;-82
2022/01/27 03:55:17;;;;;;;32.80;14.50;;;0.80;99.90;;;;;;4977040;29;20031;-81
2022/01/27 03:57:42;;;;;;;30.27;13.65;;;0.70;99.90;;;;;;4968842;29;20027;-83
2022/01/27 04:00:11;;;;;;;31.65;13.90;;;0.70;99.90;;;;;;4964414;28;20023;-83
2022/01/27 04:02:51;;;;;;;30.35;14.77;;;0.80;99.90;;;;;;4964860;29;20046;-83
2022/01/27 04:05:19;;;;;;;32.75;14.88;;;0.80;99.90;;;;;;4964820;29;20047;-82
2022/01/27 04:07:45;;;;;;;37.17;16.03;;;0.80;99.90;;;;;;4965716;29;20022;-82
2022/01/27 04:10:11;;;;;;;29.45;14.38;;;0.80;99.90;;;;;;4898157;29;20059;-82
2022/01/27 04:12:37;;;;;;;28.42;13.57;;;0.90;99.90;;;;;;4945883;29;20035;-82
2022/01/27 04:15:06;;;;;;;30.70;14.35;;;0.90;99.90;;;;;;4945193;29;20028;-82
2022/01/27 04:17:32;;;;;;;33.75;15.20;;;0.90;99.90;;;;;;4928750;29;20065;-82
2022/01/27 04:19:58;;;;;;;32.13;14.57;;;0.90;99.90;;;;;;4928525;29;20020;-83
2022/01/27 04:22:23;;;;;;;29.55;14.00;;;0.90;99.90;;;;;;4928783;29;20027;-83
2022/01/27 04:24:49;;;;;;;27.65;14.10;;;1.10;99.90;;;;;;4945372;29;20027;-83
2022/01/27 04:27:20;;;;;;;34.65;15.90;;;1.10;99.90;;;;;;4928752;29;20314;-82
2022/01/27 04:29:46;;;;;;;34.13;15.60;;;1.00;99.90;;;;;;4945674;29;20024;-83
2022/01/27 04:32:20;;;;;;;30.75;15.27;;;0.90;99.90;;;;;;4928437;29;20273;-82
2022/01/27 04:34:46;;;;;;;34.55;15.02;;;0.90;99.90;;;;;;4928698;29;20031;-82
2022/01/27 04:37:13;;;;;;;30.13;13.98;;;0.90;99.90;;;;;;4912094;29;20210;-81
2022/01/27 04:39:52;;;;;;;31.63;14.13;;;0.80;99.90;;;;;;4912813;29;20210;-82
2022/01/27 04:42:30;;;;;;;31.98;13.77;;;0.80;99.90;;;;;;4945287;29;20206;-82
2022/01/27 04:45:01;;;;;;;29.58;13.73;;;0.80;99.90;;;;;;4927553;29;20099;-82
2022/01/27 04:47:30;;;;;;;31.13;14.27;;;1.00;99.90;;;;;;4945200;29;20047;-82
2022/01/27 04:49:57;;;;;;;;;;;1.00;99.90;;;;;;4928480;29;20031;-82
2022/01/27 04:52:24;;;;;;;33.83;14.82;;;0.80;99.90;;;;;;4912274;29;19907;-82
2022/01/27 04:55:03;;;;;;;35.28;16.58;;;0.80;99.90;;;;;;4927960;29;20333;-81
2022/01/27 04:57:31;;;;;;;29.92;15.02;;;0.70;99.90;;;;;;4912366;29;20310;-82
2022/01/27 04:59:57;;;;;;;33.38;16.42;;;0.70;99.90;;;;;;4911641;29;20253;-81
2022/01/27 05:04:51;;;;;;;;;;;0.70;99.90;;;;;;4944762;29;20032;-82
2022/01/27 05:07:20;;;;;;;33.35;15.35;;;0.70;99.90;;;;;;4928196;29;20097;-82
2022/01/27 05:09:54;;;;;;;;;;;0.70;99.90;;;;;;4955399;28;20110;-81
2022/01/27 05:12:45;;;;;;;31.48;15.38;;;0.50;99.90;;;;;;4963158;29;20126;-81
2022/01/27 05:15:06;;;;;;;33.80;16.23;;;0.50;99.90;;;;;;4962090;29;20234;-83
2022/01/27 05:17:32;;;;;;;33.97;16.20;;;0.50;99.90;;;;;;4963934;28;20225;-82
2022/01/27 05:19:58;;;;;;;36.53;16.48;;;0.50;99.90;;;;;;4963551;28;20027;-82
2022/01/27 05:22:23;;;;;;;32.90;15.38;;;0.50;99.90;;;;;;4964219;28;20329;-82
2022/01/27 05:24:49;;;;;;;34.70;16.70;;;0.40;99.90;;;;;;4964070;29;20031;-82
2022/01/27 05:27:16;;;;;;;36.47;16.65;;;0.50;99.90;;;;;;4962377;29;20043;-82
2022/01/27 05:29:42;;;;;;;35.53;15.95;;;0.50;99.90;;;;;;4962626;29;20278;-82
2022/01/27 05:32:08;;;;;;;37.35;16.67;;;0.60;99.90;;;;;;4963465;29;20035;-82
2022/01/27 05:34:34;;;;;;;32.88;16.13;;;0.50;99.90;;;;;;4963831;28;20038;-81
2022/01/27 05:36:59;;;;;;;36.25;16.73;;;0.50;99.90;;;;;;4967267;28;20019;-83
2022/01/27 05:39:25;;;;;;;35.65;17.23;;;0.50;99.90;;;;;;4967715;28;20031;-85
2022/01/27 05:41:51;;;;;;;35.45;17.05;;;0.50;99.90;;;;;;4967695;28;20313;-79
2022/01/27 05:44:17;;;;;;;34.65;15.75;;;0.40;99.90;;;;;;4965939;29;20015;-81
2022/01/27 05:46:43;;;;;;;34.30;17.45;;;0.50;99.90;;;;;;4967157;29;20039;-80
2022/01/27 05:49:08;;;;;;;38.55;17.40;;;0.60;99.90;;;;;;4966772;29;20028;-80
2022/01/27 05:51:34;;;;;;;33.75;16.73;;;0.60;99.90;;;;;;4966137;29;20027;-80
2022/01/27 05:54:00;;;;;;;37.70;16.38;;;0.50;99.90;;;;;;4968177;29;20027;-80
2022/01/27 05:56:27;;;;;;;35.95;16.73;;;0.50;99.90;;;;;;4949761;29;20031;-80
2022/01/27 05:58:53;;;;;;;37.83;17.83;;;0.50;99.90;;;;;;4966455;28;20098;-80
2022/01/27 06:01:19;;;;;;;36.38;16.60;;;0.50;99.90;;;;;;4967556;28;20038;-80
2022/01/27 06:03:44;;;;;;;34.53;17.77;;;0.50;99.90;;;;;;4984955;28;20069;-80
2022/01/27 06:06:10;;;;;;;37.47;17.85;;;0.40;99.90;;;;;;4985718;28;20042;-80
2022/01/27 06:08:36;;;;;;;34.15;17.23;;;0.40;99.90;;;;;;4979673;28;20047;-81
2022/01/27 06:11:02;;;;;;;35.92;18.63;;;0.40;99.90;;;;;;4930565;29;20158;-80
2022/01/27 06:13:27;;;;;;;37.05;17.60;;;0.40;99.90;;;;;;4915250;29;20076;-81
2022/01/27 06:15:53;;;;;;;37.75;17.90;;;0.40;99.90;;;;;;4947075;29;20040;-79
2022/01/27 06:18:19;;;;;;;38.92;17.08;;;0.40;99.90;;;;;;4934137;29;20041;-81
2022/01/27 06:20:48;;;;;;;40.40;17.92;;;0.40;99.90;;;;;;4949879;29;20046;-80
2022/01/27 06:23:14;;;;;;;39.03;18.17;;;0.30;99.90;;;;;;4949915;29;20246;-79
2022/01/27 06:25:40;;;;;;;39.28;18.55;;;0.30;99.90;;;;;;4950856;29;20218;-81
2022/01/27 06:28:06;;;;;;;39.22;19.33;;;0.30;99.90;;;;;;4967633;29;20027;-81
2022/01/27 06:30:35;;;;;;;37.47;17.77;;;0.30;99.90;;;;;;4965853;28;20043;-81
2022/01/27 06:33:02;;;;;;;;;;;0.30;99.90;;;;;;4949788;29;20035;-81
2022/01/27 06:35:27;;;;;;;40.22;18.10;;;0.20;99.90;;;;;;4967211;29;19913;-82
2022/01/27 06:37:53;;;;;;;38.03;17.50;;;0.20;99.90;;;;;;4967903;29;20019;-81
2022/01/27 06:40:19;;;;;;;39.40;18.52;;;0.20;99.90;;;;;;4949637;29;20034;-81
2022/01/27 06:42:48;;;;;;;40.97;19.75;;;0.20;99.90;;;;;;4966307;29;20023;-82
2022/01/27 06:45:14;;;;;;;38.65;17.75;;;0.20;99.90;;;;;;4932173;28;20147;-81
2022/01/27 06:47:40;;;;;;;37.47;17.48;;;0.20;99.90;;;;;;4965275;29;20029;-82
2022/01/27 06:50:06;;;;;;;34.10;16.58;;;0.10;99.90;;;;;;4965593;29;20024;-83
2022/01/27 06:52:32;;;;;;;35.88;16.13;;;0.20;99.90;;;;;;4948940;29;20077;-80
2022/01/27 06:54:58;;;;;;;32.28;15.63;;;0.20;99.90;;;;;;4949018;29;20055;-82
2022/01/27 06:57:24;;;;;;;34.13;15.45;;;0.20;99.90;;;;;;4944981;29;20050;-82
2022/01/27 06:59:50;;;;;;;33.70;15.48;;;0.30;99.90;;;;;;4929112;29;20265;-81
2022/01/27 07:02:16;;;;;;;33.33;15.85;;;0.30;99.90;;;;;;4912616;29;20107;-81
2022/01/27 07:04:45;;;;;;;33.78;16.17;;;0.20;99.90;;;;;;4948698;29;20054;-81
2022/01/27 07:07:14;;;;;;;32.85;14.95;;;0.20;99.90;;;;;;4963476;29;20118;-81
2022/01/27 07:09:42;;;;;;;30.60;15.23;;;0.10;99.90;;;;;;4964062;28;20047;-82
2022/01/27 07:12:09;;;;;;;33.55;15.85;;;0.10;99.90;;;;;;4958531;29;20124;-81
2022/01/27 07:14:35;;;;;;;32.65;16.40;;;0.10;99.90;;;;;;4952440;29;20019;-82
2022/01/27 07:17:01;;;;;;;36.45;16.25;;;0.10;99.90;;;;;;4932919;29;20287;-80
2022/01/27 07:19:37;;;;;;;30.70;15.45;;;0.10;99.90;;;;;;4929396;29;20078;-82
2022/01/27 07:22:06;;;;;;;34.10;15.95;;;0.10;99.90;;;;;;4912641;29;20028;-83
2022/01/27 07:24:31;;;;;;;33.85;15.52;;;0.20;99.90;;;;;;4941667;29;20161;-83
2022/01/27 07:26:57;;;;;;;35.80;16.05;;;0.20;99.90;;;;;;4944559;29;20035;-82
2022/01/27 07:29:23;;;;;;;31.08;14.55;;;0.20;99.90;;;;;;4946658;29;20337;-83
2022/01/27 07:31:49;;;;;;;31.15;14.70;;;0.20;99.90;;;;;;4948044;28;20123;-80
2022/01/27 07:34:14;;;;;;;34.95;16.92;;;0.20;99.90;;;;;;4968436;29;20034;-80
2022/01/27 07:36:40;;;;;;;46.28;18.38;;;0.20;99.90;;;;;;4949199;29;20310;-81
2022/01/27 07:39:13;;;;;;;49.83;19.58;;;0.20;99.90;;;;;;4947970;29;20038;-80
2022/01/27 07:41:44;;;;;;;46.85;19.38;;;0.30;99.90;;;;;;4925089;29;20040;-80
2022/01/27 07:44:18;;;;;;;47.53;20.50;;;0.20;99.90;;;;;;4922868;29;20099;-80
2022/01/27 07:47:01;;;;;;;47.90;20.05;;;0.30;99.90;;;;;;4923799;29;20048;-81
2022/01/27 07:49:28;;;;;;;44.08;19.00;;;0.20;99.90;;;;;;4924817;29;20083;-81
2022/01/27 07:51:54;;;;;;;51.13;20.38;;;0.20;99.90;;;;;;4905720;29;20120;-83
2022/01/27 07:54:20;;;;;;;45.33;19.77;;;0.30;99.90;;;;;;4905611;29;20037;-80
2022/01/27 07:56:46;;;;;;;42.03;18.25;;;0.30;99.90;;;;;;4913302;29;20040;-81
2022/01/27 07:59:12;;;;;;;41.05;19.02;;;0.20;99.90;;;;;;4920571;29;20121;-81
2022/01/27 08:01:56;;;;;;;44.97;18.80;;;0.20;99.90;;;;;;4921060;29;20220;-81
2022/01/27 08:04:24;;;;;;;43.65;17.80;;;0.10;99.90;;;;;;4924078;29;20070;-83
2022/01/27 08:06:50;;;;;;;40.28;16.58;;;0.10;99.90;;;;;;4941003;29;20243;-83
2022/01/27 08:09:17;;;;;;;38.55;17.05;;;0.00;99.90;;;;;;4937720;29;20082;-80
2022/01/27 08:11:43;;;;;;;35.10;15.93;;;0.00;99.90;;;;;;4965184;28;20381;-80
2022/01/27 08:14:09;;;;;;;42.30;15.95;;;0.00;99.90;;;;;;4982210;28;20066;-81
2022/01/27 08:16:34;;;;;;;41.80;17.40;;;-0.10;99.90;;;;;;4956677;28;20082;-80
2022/01/27 08:19:03;;;;;;;40.75;16.95;;;-0.10;99.90;;;;;;4966608;28;20049;-81
2022/01/27 08:21:29;;;;;;;38.97;15.82;;;-0.10;99.90;;;;;;4982580;28;20145;-80
2022/01/27 08:24:15;;;;;;;44.25;17.88;;;0.00;99.90;;;;;;4982703;28;20022;-81
2022/01/27 08:27:01;;;;;;;42.60;17.13;;;0.00;99.90;;;;;;4983655;28;20061;-81
2022/01/27 08:30:06;;;;;;;43.97;16.60;;;-0.10;99.90;;;;;;4982186;28;20088;-81
2022/01/27 08:33:19;;;;;;;40.55;16.60;;;-0.10;99.90;;;;;;4978323;28;20356;-81
2022/01/27 08:35:22;;;;;;;45.28;18.05;;;-0.10;99.90;;;;;;4967335;28;20035;-81
2022/01/27 08:37:48;;;;;;;41.25;17.48;;;0.00;99.90;;;;;;4966240;28;20085;-81
2022/01/27 08:40:16;;;;;;;44.38;16.23;;;-0.10;99.90;;;;;;4965574;28;20030;-81
2022/01/27 08:42:43;;;;;;;41.65;17.15;;;0.00;99.90;;;;;;4966001;28;20023;-82
2022/01/27 08:45:12;;;;;;;46.58;18.08;;;0.00;99.90;;;;;;4965486;28;20113;-82
2022/01/27 08:47:38;;;;;;;;;;;-0.10;99.90;;;;;;4967510;28;20306;-83
2022/01/27 08:50:09;;;;;;;42.08;16.08;;;-0.20;99.90;;;;;;4982883;28;19909;-81
2022/01/27 08:52:35;;;;;;;40.90;16.75;;;-0.20;99.90;;;;;;4981899;28;20031;-81
2022/01/27 08:55:03;;;;;;;42.45;17.15;;;-0.20;99.90;;;;;;4983206;28;20026;-80
2022/01/27 08:57:54;;;;;;;42.78;15.88;;;-0.10;99.90;;;;;;4980710;28;20038;-80
2022/01/27 09:03:18;;;;;;;44.30;17.42;;;0.00;99.90;;;;;;4982018;28;20042;-82
2022/01/27 09:08:38;;;;;;;47.60;17.92;;;0.30;99.90;;;;;;4981781;28;20097;-81
2022/01/27 09:11:16;;;;;;;44.92;17.25;;;0.50;99.90;;;;;;4985718;28;20250;-81
2022/01/27 09:13:42;;;;;;;46.25;18.27;;;0.50;99.90;;;;;;4986029;28;20313;-80
2022/01/27 09:16:09;;;;;;;38.05;15.98;;;0.50;99.90;;;;;;4985043;28;20284;-82
2022/01/27 09:18:35;;;;;;;41.00;16.20;;;0.70;99.90;;;;;;4985743;28;20209;-81
2022/01/27 09:21:05;;;;;;;38.85;16.08;;;1.10;99.90;;;;;;4985377;28;20102;-81
2022/01/27 09:23:35;;;;;;;36.30;15.90;;;1.10;99.90;;;;;;4985534;28;20049;-81
2022/01/27 09:26:08;;;;;;;36.22;15.68;;;1.10;99.90;;;;;;4974262;28;20077;-80
2022/01/27 09:28:46;;;;;;;33.97;14.90;;;1.00;99.90;;;;;;4971288;28;20041;-83
2022/01/27 09:31:11;;;;;;;36.85;14.35;;;1.00;99.90;;;;;;4985828;28;20182;-82
2022/01/27 09:33:37;;;;;;;34.13;14.50;;;1.20;99.90;;;;;;4965998;29;20050;-82
2022/01/27 09:36:25;;;;;;;31.95;12.82;;;1.40;99.90;;;;;;4966347;29;20039;-82
2022/01/27 09:38:54;;;;;;;;;;;1.40;99.90;;;;;;4986993;28;20034;-81
2022/01/27 09:41:22;;;;;;;26.17;10.82;;;1.30;99.90;;;;;;4985838;28;19992;-78
2022/01/27 09:43:48;;;;;;;23.48;9.68;;;1.50;99.90;;;;;;4986902;28;20033;-80
2022/01/27 09:46:18;;;;;;;22.77;10.07;;;1.60;99.90;;;;;;4984608;28;20057;-80
2022/01/27 09:48:47;;;;;;;20.38;9.38;;;1.80;99.90;;;;;;4969432;28;20035;-81
2022/01/27 09:53:51;;;;;;;21.50;9.27;;;2.00;99.90;;;;;;4988917;28;20031;-82
2022/01/27 09:56:18;;;;;;;19.92;8.82;;;2.10;99.90;;;;;;4969549;28;20041;-80
2022/01/27 09:58:44;;;;;;;22.15;9.07;;;2.10;99.90;;;;;;4985177;28;20023;-81
2022/01/27 10:01:13;;;;;;;20.67;9.35;;;2.10;99.90;;;;;;4984784;28;20027;-79
2022/01/27 10:04:09;;;;;;;20.88;10.05;;;2.10;99.90;;;;;;4985343;28;20241;-80
2022/01/27 10:06:36;;;;;;;23.38;9.38;;;2.00;99.90;;;;;;4985911;28;20039;-79
2022/01/27 10:09:23;;;;;;;21.75;9.75;;;2.00;99.90;;;;;;4978448;28;20126;-80
2022/01/27 10:11:50;;;;;;;21.52;8.90;;;2.10;99.90;;;;;;4934757;29;20050;-80
2022/01/27 10:14:21;;;;;;;20.45;9.70;;;2.10;99.90;;;;;;4950479;29;20035;-81
2022/01/27 10:16:50;;;;;;;20.95;8.82;;;2.30;99.90;;;;;;4951604;29;20330;-80
2022/01/27 10:19:21;;;;;;;18.15;8.07;;;2.40;99.90;;;;;;4934431;29;20102;-80
2022/01/27 10:21:49;;;;;;;21.45;9.23;;;2.50;99.90;;;;;;4950454;29;20090;-81
2022/01/27 10:24:27;;;;;;;20.55;9.48;;;2.60;99.90;;;;;;4949929;29;20024;-81
2022/01/27 10:30:35;;;;;;;21.73;10.05;;;2.70;99.90;;;;;;4966290;29;20054;-82
2022/01/27 10:32:57;;;;;;;21.88;9.63;;;2.60;99.90;;;;;;4966948;29;20031;-81
2022/01/27 10:35:27;;;;;;;18.65;9.60;;;2.70;99.90;;;;;;4968035;29;20035;-80
2022/01/27 10:38:12;;;;;;;19.65;9.45;;;2.70;99.90;;;;;;4957466;29;20031;-81
2022/01/27 10:40:52;;;;;;;20.55;9.70;;;2.70;99.90;;;;;;4956621;29;20027;-78
2022/01/27 10:43:23;;;;;;;19.75;9.32;;;2.80;99.90;;;;;;4960881;29;20059;-79
2022/01/27 10:49:03;;;;;;;17.52;8.27;;;2.90;99.90;;;;;;4971213;29;20028;-80
2022/01/27 10:51:37;;;;;;;20.50;8.00;;;2.90;99.90;;;;;;4948691;29;20043;-79
2022/01/27 10:54:06;;;;;;;20.08;8.80;;;3.00;99.90;;;;;;4948572;29;20035;-79
2022/01/27 10:56:54;;;;;;;16.13;8.38;;;3.00;99.90;;;;;;4931655;29;20079;-81
2022/01/27 10:59:20;;;;;;;15.25;8.20;;;2.90;99.90;;;;;;4929874;29;20070;-80
2022/01/27 11:02:07;;;;;;;19.70;9.23;;;2.90;99.90;;;;;;4914907;29;20040;-78
2022/01/27 11:04:39;;;;;;;17.13;8.23;;;3.00;99.90;;;;;;4948269;29;20027;-79
2022/01/27 11:07:11;;;;;;;16.55;7.45;;;3.20;99.90;;;;;;4947267;29;20132;-79
2022/01/27 11:09:42;;;;;;;19.40;8.68;;;3.10;99.90;;;;;;4951251;29;20091;-79
2022/01/27 11:12:14;;;;;;;13.88;6.88;;;3.10;99.90;;;;;;4966465;29;20309;-80
2022/01/27 11:14:41;;;;;;;16.10;7.28;;;3.10;99.90;;;;;;4966668;28;20055;-79
2022/01/27 11:17:10;;;;;;;17.42;7.90;;;3.10;99.90;;;;;;4966247;28;20340;-79
2022/01/27 11:27:47;;;;;;;16.20;7.55;;;3.30;99.90;;;;;;4968466;29;20254;-79
2022/01/27 11:30:31;;;;;;;19.13;7.75;;;3.40;99.90;;;;;;4963989;28;20029;-79
2022/01/27 11:33:04;;;;;;;16.40;7.32;;;3.60;99.90;;;;;;4957473;28;20035;-80
2022/01/27 11:35:31;;;;;;;18.35;8.63;;;3.70;99.90;;;;;;4983755;28;20034;-80
2022/01/27 11:38:00;;;;;;;17.02;8.80;;;3.70;99.90;;;;;;4986193;28;20030;-79
2022/01/27 11:40:39;;;;;;;16.95;7.90;;;3.60;99.90;;;;;;4983671;28;20317;-78
2022/01/27 11:43:13;;;;;;;16.60;7.57;;;3.60;99.90;;;;;;4968920;28;20030;-78
2022/01/27 11:45:49;;;;;;;17.75;7.85;;;3.70;99.90;;;;;;4967358;28;20051;-79
2022/01/27 11:48:26;;;;;;;17.20;8.15;;;3.90;99.90;;;;;;4967601;28;20039;-79
2022/01/27 11:51:10;;;;;;;17.45;8.30;;;3.80;99.90;;;;;;4984263;28;20315;-80
2022/01/27 11:53:45;;;;;;;15.38;7.78;;;3.80;99.90;;;;;;4984478;28;20066;-80
2022/01/27 11:56:37;;;;;;;16.17;8.30;;;3.70;99.90;;;;;;4984135;28;20031;-79
2022/01/27 11:59:06;;;;;;;18.63;8.70;;;3.70;99.90;;;;;;4984937;28;20054;-79
2022/01/27 12:01:37;;;;;;;16.80;8.00;;;3.70;99.90;;;;;;4967128;28;20088;-78
2022/01/27 12:04:06;;;;;;;16.02;7.95;;;3.80;99.90;;;;;;4984137;28;20057;-79
2022/01/27 12:06:34;;;;;;;18.33;7.95;;;3.80;99.90;;;;;;4983883;28;20034;-78
2022/01/27 12:09:18;;;;;;;;;;;3.70;99.90;;;;;;4968120;28;20270;-80
2022/01/27 12:11:48;;;;;;;17.63;8.90;;;3.70;99.90;;;;;;4983661;28;20012;-79
2022/01/27 12:14:17;;;;;;;18.50;9.52;;;3.90;99.90;;;;;;4983232;28;20030;-80
2022/01/27 12:19:15;;;;;;;21.48;10.25;;;3.80;99.90;;;;;;4982566;28;20058;-78
2022/01/27 12:21:46;;;;;;;20.20;9.68;;;4.00;99.90;;;;;;4967376;28;20019;-80
2022/01/27 12:24:17;;;;;;;20.88;10.25;;;4.10;99.90;;;;;;4982852;28;20030;-79
2022/01/27 12:26:50;;;;;;;17.10;8.23;;;4.20;99.90;;;;;;4967631;28;20038;-80
2022/01/27 12:29:34;;;;;;;17.92;8.80;;;4.50;99.90;;;;;;4984060;28;20027;-79
2022/01/27 12:32:03;;;;;;;18.77;8.35;;;4.50;99.90;;;;;;4982917;28;20291;-79
2022/01/27 12:34:31;;;;;;;16.50;8.50;;;4.20;99.90;;;;;;4966700;28;20043;-79
2022/01/27 12:37:04;;;;;;;19.08;9.80;;;4.30;99.90;;;;;;4982917;28;20126;-78
2022/01/27 12:39:33;;;;;;;17.95;9.00;;;4.40;99.90;;;;;;4966405;28;20041;-79
2022/01/27 12:42:01;;;;;;;20.13;9.60;;;4.50;99.90;;;;;;4984748;28;20093;-79
2022/01/27 12:44:28;;;;;;;17.65;8.95;;;4.50;99.90;;;;;;4984174;28;20109;-80
2022/01/27 12:47:14;;;;;;;19.25;8.60;;;4.20;99.90;;;;;;4983637;28;20082;-79
2022/01/27 12:49:43;;;;;;;21.00;9.30;;;4.40;99.90;;;;;;4983433;28;20077;-80
2022/01/27 12:52:12;;;;;;;16.60;8.25;;;4.50;99.90;;;;;;4983845;28;20321;-80
2022/01/27 12:54:40;;;;;;;17.40;8.95;;;4.50;99.90;;;;;;4982783;28;20038;-80
2022/01/27 12:57:09;;;;;;;18.85;9.10;;;4.40;99.90;;;;;;4984881;28;20014;-78
2022/01/27 12:59:41;;;;;;;22.15;10.32;;;4.50;99.90;;;;;;4985350;28;20110;-80
2022/01/27 13:02:11;;;;;;;19.10;9.13;;;4.40;99.90;;;;;;4984648;28;20038;-78
2022/01/27 13:04:39;;;;;;;15.48;8.48;;;4.60;99.90;;;;;;4984484;28;20033;-78
2022/01/27 13:07:05;;;;;;;16.52;8.52;;;4.60;99.90;;;;;;4981124;28;20093;-80
2022/01/27 13:09:33;;;;;;;20.35;10.00;;;4.60;99.90;;;;;;4982794;28;20061;-78
2022/01/27 13:12:40;;;;;;;19.48;9.05;;;4.50;99.90;;;;;;4984211;28;20055;-79
2022/01/27 13:15:13;;;;;;;15.98;8.55;;;4.60;99.90;;;;;;4979764;28;20043;-79
2022/01/27 13:17:48;;;;;;;21.02;9.60;;;4.70;99.90;;;;;;4990132;28;20030;-80
2022/01/27 13:20:35;;;;;;;18.77;8.57;;;4.70;99.90;;;;;;4994615;28;20107;-80
2022/01/27 13:23:33;;;;;;;18.52;9.52;;;4.70;99.90;;;;;;4981025;28;20027;-79
2022/01/27 13:26:04;;;;;;;20.88;9.70;;;4.80;99.90;;;;;;4989267;28;20034;-79
2022/01/27 13:28:40;;;;;;;17.98;8.63;;;4.90;99.90;;;;;;5002096;28;20030;-78
2022/01/27 13:31:11;;;;;;;20.33;9.35;;;5.00;99.90;;;;;;5001915;28;20050;-80
2022/01/27 13:33:45;;;;;;;20.45;8.80;;;5.10;99.90;;;;;;4998988;28;20034;-80
2022/01/27 13:36:22;;;;;;;20.65;9.15;;;5.00;99.90;;;;;;4978928;28;20030;-78
2022/01/27 13:39:11;;;;;;;21.92;9.77;;;5.30;99.90;;;;;;4999645;28;20030;-78
2022/01/27 13:41:40;;;;;;;22.13;10.65;;;5.20;99.90;;;;;;4999577;28;20049;-80
2022/01/27 13:44:10;;;;;;;19.95;9.95;;;5.50;99.90;;;;;;4999208;28;20022;-81
2022/01/27 13:46:59;;;;;;;19.00;9.02;;;6.20;99.90;;;;;;4994314;28;20347;-79
2022/01/27 13:49:33;;;;;;;19.10;9.82;;;6.40;99.90;;;;;;4972511;28;20035;-79
2022/01/27 13:52:10;;;;;;;18.35;9.40;;;6.50;99.90;;;;;;4928227;29;20127;-78
2022/01/27 13:54:42;;;;;;;20.00;9.63;;;6.30;99.90;;;;;;4958530;28;20055;-80
2022/01/27 13:57:16;;;;;;;18.58;9.50;;;6.90;99.90;;;;;;4961156;28;20151;-80
2022/01/27 14:00:09;;;;;;;17.10;8.63;;;6.70;99.90;;;;;;4948661;29;20050;-79